createdAt,value
2023-02-19T00:01:31.603Z,0
2023-02-19T00:07:06.175Z,0
2023-02-19T00:12:24.365Z,0
2023-02-19T00:17:41.709Z,0
2023-02-19T00:23:43.959Z,0
2023-02-19T00:29:01.887Z,0
2023-02-19T00:34:19.110Z,0
2023-02-19T00:39:36.361Z,0
2023-02-19T00:44:54.000Z,0
2023-02-19T00:55:31.754Z,0
2023-02-19T01:00:49.203Z,0
2023-02-19T01:06:06.826Z,0
2023-02-19T01:11:26.620Z,0
2023-02-19T01:16:43.876Z,0
2023-02-19T01:22:01.372Z,0
2023-02-19T01:27:18.524Z,0
2023-02-19T01:32:36.012Z,0
2023-02-19T01:37:53.274Z,0
2023-02-19T01:43:10.448Z,0
2023-02-19T01:48:29.827Z,0
2023-02-19T01:53:47.299Z,0
2023-02-19T01:59:04.402Z,0
2023-02-19T02:04:21.752Z,0
2023-02-19T02:09:39.070Z,0
2023-02-19T02:20:16.653Z,0
2023-02-19T02:25:37.293Z,0
2023-02-19T02:30:54.796Z,0
2023-02-19T02:36:12.988Z,0
2023-02-19T02:41:30.596Z,0
2023-02-19T02:46:48.030Z,0
2023-02-19T02:52:05.100Z,0
2023-02-19T02:57:22.382Z,0
2023-02-19T03:02:39.892Z,0
2023-02-19T03:07:57.444Z,0
2023-02-19T03:18:34.872Z,0
2023-02-19T03:23:52.068Z,0
2023-02-19T03:29:09.486Z,0
2023-02-19T03:34:26.920Z,0
2023-02-19T03:39:46.762Z,0
2023-02-19T03:45:04.328Z,0
2023-02-19T03:50:21.611Z,0
2023-02-19T03:55:41.505Z,0
2023-02-19T04:00:58.959Z,0
2023-02-19T04:06:16.781Z,0
2023-02-19T04:11:34.107Z,0
2023-02-19T04:16:51.497Z,0
2023-02-19T04:22:11.727Z,0
2023-02-19T04:27:29.034Z,0
2023-02-19T04:32:47.053Z,0
2023-02-19T04:38:04.676Z,0
2023-02-19T04:43:22.013Z,0
2023-02-19T04:48:40.996Z,0
2023-02-19T04:53:58.590Z,0
2023-02-19T04:59:15.767Z,0
2023-02-19T05:04:33.533Z,0
2023-02-19T05:09:53.665Z,0
2023-02-19T05:15:11.051Z,0
2023-02-19T05:20:28.382Z,0
2023-02-19T05:25:45.800Z,0
2023-02-19T05:31:09.780Z,0
2023-02-19T05:36:27.468Z,0
2023-02-19T05:41:44.957Z,0
2023-02-19T05:47:02.131Z,0
2023-02-19T05:52:19.501Z,0
2023-02-19T05:57:37.179Z,0
2023-02-19T06:02:57.628Z,0
2023-02-19T06:08:14.952Z,0
2023-02-19T06:13:32.269Z,0
2023-02-19T06:18:50.368Z,0
2023-02-19T06:24:07.681Z,0
2023-02-19T06:29:27.703Z,37.5
2023-02-19T06:34:44.770Z,55.8
2023-02-19T06:40:04.335Z,106.7
2023-02-19T06:45:21.465Z,199.2
2023-02-19T06:50:38.736Z,268.3
2023-02-19T06:55:55.838Z,411.7
2023-02-19T07:01:12.924Z,524.6
2023-02-19T07:06:30.331Z,555.8
2023-02-19T07:11:47.664Z,781.7
2023-02-19T07:17:04.754Z,831.7
2023-02-19T07:27:42.207Z,1381.2
2023-02-19T07:33:03.292Z,1973.3
2023-02-19T07:38:20.660Z,1462.9
2023-02-19T07:43:37.827Z,2979.6
2023-02-19T07:48:55.163Z,2991.7
2023-02-19T07:54:12.180Z,1233.3
2023-02-19T07:59:29.189Z,2023.3
2023-02-19T08:04:52.208Z,1720
2023-02-19T08:10:09.005Z,2632.5
2023-02-19T08:15:26.137Z,1676.2
2023-02-19T08:20:43.108Z,1221.3
2023-02-19T08:26:04.814Z,1522.9
2023-02-19T08:31:21.975Z,2799.6
2023-02-19T08:36:42.118Z,5075.8
2023-02-19T08:41:59.291Z,2526.2
2023-02-19T08:47:16.104Z,4367.5
2023-02-19T08:52:33.710Z,7701.7
2023-02-19T08:57:53.490Z,9845.4
2023-02-19T09:03:16.583Z,8635.4
2023-02-19T09:08:34.411Z,8278.7
2023-02-19T09:13:52.086Z,12924.2
2023-02-19T09:19:14.837Z,5959.6
2023-02-19T09:24:31.510Z,7730.4
2023-02-19T09:29:47.917Z,7383.7
2023-02-19T09:35:05.076Z,9106.7
2023-02-19T09:40:22.000Z,7411.7
2023-02-19T09:45:39.531Z,12545
2023-02-19T09:50:57.071Z,12615.8
2023-02-19T09:56:17.303Z,5607.9
2023-02-19T10:01:34.341Z,8330
2023-02-19T10:06:51.104Z,4753.8
2023-02-19T10:12:10.064Z,11083.7
2023-02-19T10:17:27.352Z,5303.3
2023-02-19T10:22:44.112Z,6457.9
2023-02-19T10:28:01.985Z,9267.9
2023-02-19T10:33:19.556Z,19804.2
2023-02-19T10:38:38.877Z,9036.2
2023-02-19T10:43:56.659Z,19815.8
2023-02-19T10:49:15.010Z,12038.3
2023-02-19T10:54:31.562Z,10615
2023-02-19T10:59:52.872Z,9321.7
2023-02-19T11:05:09.011Z,5254.6
2023-02-19T11:10:25.754Z,3272.1
2023-02-19T11:21:05.264Z,5867.5
2023-02-19T11:26:22.185Z,8480.4
2023-02-19T11:31:39.546Z,13472.5
2023-02-19T11:36:57.033Z,12095
2023-02-19T11:42:13.944Z,9808.3
2023-02-19T11:47:30.772Z,11834.2
2023-02-19T11:52:47.713Z,11972.9
2023-02-19T11:58:05.115Z,13312.5
2023-02-19T12:03:21.988Z,13162.5
2023-02-19T12:08:39.041Z,10444.6
2023-02-19T12:13:56.475Z,14371.2
2023-02-19T12:19:22.400Z,14322.1
2023-02-19T12:24:39.484Z,9998.7
2023-02-19T12:30:00.360Z,10017.1
2023-02-19T12:35:17.391Z,10739.6
2023-02-19T12:40:34.202Z,10309.2
2023-02-19T12:45:51.428Z,8901.7
2023-02-19T12:51:08.469Z,10120.4
2023-02-19T12:56:25.299Z,7311.7
2023-02-19T13:01:44.960Z,10039.2
2023-02-19T13:07:02.076Z,8732.1
2023-02-19T13:12:22.111Z,5896.3
2023-02-19T13:17:39.232Z,9549.2
2023-02-19T13:22:59.524Z,10389.2
2023-02-19T13:28:16.442Z,9450
2023-02-19T13:33:33.372Z,9728.3
2023-02-19T13:38:50.348Z,11291.7
2023-02-19T13:44:07.795Z,12197.9
2023-02-19T13:49:25.153Z,10435
2023-02-19T13:54:41.903Z,9793.3
2023-02-19T13:59:59.163Z,9255
2023-02-19T14:05:16.149Z,8513.3
2023-02-19T14:10:32.938Z,6547.9
2023-02-19T14:15:49.764Z,5819.2
2023-02-19T14:21:06.560Z,3977.9
2023-02-19T14:26:23.456Z,3896.7
2023-02-19T14:31:40.272Z,1973.3
2023-02-19T14:37:01.355Z,3459.2
2023-02-19T14:42:18.676Z,2969.6
2023-02-19T14:47:36.324Z,2977.1
2023-02-19T14:52:53.380Z,2213.3
2023-02-19T15:41:50.080Z,2706.3
2023-02-19T15:47:06.919Z,2372.9
2023-02-19T15:52:26.955Z,1945.8
2023-02-19T15:57:47.261Z,2362.5
2023-02-19T16:03:04.269Z,2310
2023-02-19T16:08:21.113Z,1780.4
2023-02-19T16:13:43.924Z,1997.5
2023-02-19T16:19:02.072Z,2432.5
2023-02-19T16:24:19.653Z,1870.8
2023-02-19T16:29:36.535Z,1217.9
2023-02-19T16:34:53.223Z,782.9
2023-02-19T16:40:17.501Z,539.2
2023-02-19T16:45:34.689Z,242.5
2023-02-19T16:50:51.559Z,198.8
2023-02-19T16:56:08.518Z,83.3
2023-02-19T17:01:25.633Z,48.7
2023-02-19T17:06:43.028Z,22.9
2023-02-19T17:12:04.108Z,0.5
2023-02-19T17:17:21.768Z,0
2023-02-19T17:22:39.380Z,0
2023-02-19T17:27:56.717Z,0
2023-02-19T17:33:14.034Z,0
2023-02-19T17:38:31.754Z,0
2023-02-19T17:43:49.245Z,0
2023-02-19T17:49:08.768Z,0
2023-02-19T17:54:26.301Z,0
2023-02-19T17:59:43.724Z,0
2023-02-19T18:05:05.338Z,0
2023-02-19T18:10:22.609Z,0
2023-02-19T18:15:40.009Z,0
2023-02-19T18:20:57.286Z,0
2023-02-19T18:26:17.155Z,0
2023-02-19T18:31:36.863Z,0
2023-02-19T18:36:54.291Z,0
2023-02-19T18:42:11.371Z,0
2023-02-19T18:47:28.699Z,0
2023-02-19T18:52:46.022Z,0
2023-02-19T18:58:03.307Z,0
2023-02-19T19:03:20.519Z,0
2023-02-19T19:08:37.976Z,0
2023-02-19T19:13:55.985Z,0
2023-02-19T19:19:13.537Z,0
2023-02-19T19:24:30.757Z,0
2023-02-19T19:29:48.233Z,0
2023-02-19T19:35:08.639Z,0
2023-02-19T19:40:25.877Z,0
2023-02-19T19:45:43.098Z,0
2023-02-19T19:51:02.597Z,0
2023-02-19T19:56:19.951Z,0
2023-02-19T20:01:58.048Z,0
2023-02-19T20:07:15.827Z,0
2023-02-19T20:12:33.176Z,0
2023-02-19T20:17:57.663Z,0
2023-02-19T20:23:15.081Z,0
2023-02-19T20:28:32.446Z,0
2023-02-19T20:33:51.900Z,0
2023-02-19T20:39:09.276Z,0
2023-02-19T20:44:26.568Z,0
2023-02-19T20:49:44.438Z,0
2023-02-19T20:55:04.457Z,0
2023-02-19T21:00:21.881Z,0
2023-02-19T21:05:50.601Z,0
2023-02-19T21:11:08.297Z,0
2023-02-19T21:16:25.931Z,0
2023-02-19T21:21:43.408Z,0
2023-02-19T21:27:00.713Z,0
2023-02-19T21:32:18.252Z,0
2023-02-19T21:37:35.717Z,0
2023-02-19T21:43:00.024Z,0
2023-02-19T21:48:17.481Z,0
2023-02-19T21:53:36.923Z,0
2023-02-19T21:59:01.753Z,0
2023-02-19T22:04:42.744Z,0
2023-02-19T22:10:00.440Z,0
2023-02-19T22:15:17.760Z,0
2023-02-19T22:20:34.989Z,0
2023-02-19T22:25:59.514Z,0
2023-02-19T22:31:16.999Z,0
2023-02-19T22:36:34.289Z,0
2023-02-19T22:41:51.524Z,0
2023-02-19T22:52:36.227Z,0
2023-02-19T22:57:53.982Z,0
2023-02-19T23:03:11.197Z,0
2023-02-19T23:08:28.610Z,0
2023-02-19T23:13:54.655Z,0
2023-02-19T23:19:15.152Z,0
2023-02-19T23:24:32.739Z,0
2023-02-19T23:29:53.221Z,0
2023-02-19T23:35:10.556Z,0
2023-02-19T23:40:28.005Z,0
2023-02-19T23:45:45.419Z,0
2023-02-19T23:51:11.770Z,0
2023-02-19T23:56:29.270Z,0
